Time;durP1;ratioP1;P1;durP2;ratioP2;P2;SDS_P1;SDS_P2;PMS_P1;PMS_P2;Temp;Humidity;BMP_temperature;BMP_pressure;BME280_temperature;BME280_humidity;BME280_pressure;Samples;Min_cycle;Max_cycle;Signal;HPM_P1;HPM_P2
2021/06/09 00:01:32;;;;;;;20.57;9.30;;;;;;;13.16;100.00;100358.23;1772724;80;20851;-85
2021/06/09 00:03:57;;;;;;;28.57;10.13;;;;;;;13.15;100.00;100357.19;1772867;80;21086;-85
2021/06/09 00:06:24;;;;;;;23.52;9.55;;;;;;;13.11;100.00;100358.27;1772888;80;20962;-84
2021/06/09 00:08:49;;;;;;;23.55;8.80;;;;;;;13.10;100.00;100354.51;1772829;80;21131;-84
2021/06/09 00:11:15;;;;;;;22.40;8.93;;;;;;;13.08;100.00;100353.98;1773029;80;20871;-83
2021/06/09 00:13:41;;;;;;;27.95;9.48;;;;;;;13.05;100.00;100347.23;1772744;80;20998;-84
2021/06/09 00:16:12;;;;;;;23.80;8.80;;;;;;;13.03;100.00;100347.24;1772719;80;20856;-84
2021/06/09 00:18:39;;;;;;;29.02;8.83;;;;;;;13.00;100.00;100347.29;1772729;80;21281;-84
2021/06/09 00:21:05;;;;;;;22.50;8.65;;;;;;;13.00;100.00;100342.40;1772904;80;21065;-84
2021/06/09 00:23:32;;;;;;;24.12;9.70;;;;;;;12.99;100.00;100342.14;1772780;80;20952;-84
2021/06/09 00:26:04;;;;;;;39.35;8.85;;;;;;;12.98;100.00;100342.70;1772915;80;20999;-84
2021/06/09 00:28:32;;;;;;;19.57;9.13;;;;;;;12.97;100.00;100347.85;1772567;80;20995;-84
2021/06/09 00:30:59;;;;;;;19.02;8.80;;;;;;;12.94;100.00;100344.33;1772793;81;21042;-84
2021/06/09 00:33:25;;;;;;;32.17;10.10;;;;;;;12.91;100.00;100346.25;1772941;80;21116;-84
2021/06/09 00:35:58;;;;;;;25.00;9.38;;;;;;;12.87;100.00;100343.85;1772408;80;21011;-85
2021/06/09 00:38:26;;;;;;;17.57;8.93;;;;;;;12.85;100.00;100339.26;1772771;79;20960;-84
2021/06/09 00:40:52;;;;;;;20.90;9.68;;;;;;;12.81;100.00;100347.13;1772939;80;20943;-84
2021/06/09 00:43:21;;;;;;;17.77;8.30;;;;;;;12.77;100.00;100346.64;1772793;80;20959;-84
2021/06/09 00:46:01;;;;;;;21.50;9.80;;;;;;;12.75;100.00;100342.05;1772943;80;21065;-84
2021/06/09 00:48:29;;;;;;;24.95;9.05;;;;;;;12.72;100.00;100342.05;1772925;80;20979;-85
2021/06/09 00:51:00;;;;;;;53.35;12.60;;;;;;;12.70;100.00;100338.27;1772986;80;21128;-84
2021/06/09 00:53:29;;;;;;;35.10;11.85;;;;;;;12.72;100.00;100344.21;1772746;81;20995;-84
2021/06/09 00:55:59;;;;;;;37.90;10.48;;;;;;;12.71;100.00;100346.66;1772360;80;21027;-84
2021/06/09 00:58:25;;;;;;;28.62;9.95;;;;;;;12.67;100.00;100344.23;1772843;81;21174;-84
2021/06/09 01:00:52;;;;;;;34.95;10.20;;;;;;;12.64;100.00;100343.99;1772741;80;21017;-84
2021/06/09 01:03:19;;;;;;;45.23;11.48;;;;;;;12.61;100.00;100338.59;1772810;80;20972;-85
2021/06/09 01:05:45;;;;;;;63.17;12.63;;;;;;;12.54;100.00;100343.52;1772780;80;20964;-85
2021/06/09 01:08:15;;;;;;;33.42;10.48;;;;;;;12.52;100.00;100345.68;1772741;81;20998;-85
2021/06/09 01:10:40;;;;;;;45.88;11.28;;;;;;;12.49;100.00;100341.64;1772412;80;21023;-85
2021/06/09 01:13:06;;;;;;;42.43;10.85;;;;;;;12.52;100.00;100339.47;1772775;81;20868;-84
2021/06/09 01:15:34;;;;;;;29.18;10.08;;;;;;;12.56;100.00;100339.17;1772738;80;22103;-84
2021/06/09 01:18:01;;;;;;;34.53;8.98;;;;;;;12.58;100.00;100339.16;1772635;81;20968;-84
2021/06/09 01:20:28;;;;;;;28.23;8.30;;;;;;;12.58;100.00;100339.16;1772674;81;21514;-85
2021/06/09 01:22:54;;;;;;;19.15;7.30;;;;;;;12.56;100.00;100335.95;1772576;81;21759;-84
2021/06/09 01:25:22;;;;;;;26.50;6.78;;;;;;;12.60;100.00;100340.25;1772616;80;21482;-84
2021/06/09 01:27:49;;;;;;;48.85;7.53;;;;;;;12.63;100.00;100341.03;1772703;80;20975;-85
2021/06/09 01:30:17;;;;;;;28.40;7.10;;;;;;;12.64;100.00;100342.09;1772889;80;21451;-85
2021/06/09 01:32:44;;;;;;;62.03;7.40;;;;;;;12.63;100.00;100347.80;1773127;80;21038;-85
2021/06/09 01:35:11;;;;;;;48.48;7.17;;;;;;;12.63;100.00;100349.95;1772736;80;20960;-85
2021/06/09 01:37:38;;;;;;;34.83;6.65;;;;;;;12.66;100.00;100348.59;1772627;81;21007;-84
2021/06/09 01:40:09;;;;;;;14.38;6.85;;;;;;;12.70;100.00;100341.52;1772565;80;20983;-84
2021/06/09 01:42:36;;;;;;;14.05;7.40;;;;;;;12.78;100.00;100341.48;1772747;81;21052;-83
2021/06/09 01:45:03;;;;;;;16.67;7.70;;;;;;;12.84;100.00;100332.25;1751210;81;21050;-84
2021/06/09 01:47:29;;;;;;;13.25;7.20;;;;;;;12.94;100.00;100334.86;1772690;80;21226;-83
2021/06/09 01:49:55;;;;;;;14.23;7.70;;;;;;;13.02;100.00;100334.81;1772575;79;20999;-84
2021/06/09 01:52:21;;;;;;;14.90;7.10;;;;;;;13.02;100.00;100342.94;1772839;80;21021;-84
2021/06/09 01:54:47;;;;;;;17.50;7.67;;;;;;;13.01;100.00;100343.48;1772581;80;20992;-85
2021/06/09 01:57:16;;;;;;;21.23;7.60;;;;;;;13.08;100.00;100350.72;1772382;80;20998;-83
2021/06/09 01:59:42;;;;;;;37.78;8.05;;;;;;;13.14;100.00;100352.30;1772703;80;21033;-84
2021/06/09 02:02:11;;;;;;;25.50;8.30;;;;;;;13.22;100.00;100352.80;1772400;80;20967;-84
2021/06/09 02:04:41;;;;;;;30.10;7.58;;;;;;;13.30;100.00;100351.67;1772274;80;20991;-84
2021/06/09 02:07:07;;;;;;;22.73;7.45;;;;;;;13.36;100.00;100348.38;1772752;80;21042;-84
2021/06/09 02:09:35;;;;;;;26.65;7.90;;;;;;;13.45;100.00;100355.34;1772680;80;20963;-84
2021/06/09 02:12:03;;;;;;;26.85;9.40;;;;;;;13.53;100.00;100347.41;1772791;80;21154;-83
2021/06/09 02:14:29;;;;;;;37.85;9.10;;;;;;;13.63;100.00;100348.65;1772629;80;21023;-84
2021/06/09 02:16:56;;;;;;;25.50;8.90;;;;;;;13.72;100.00;100346.13;1772628;80;20931;-83
2021/06/09 02:19:23;;;;;;;33.75;9.00;;;;;;;13.80;100.00;100354.19;1772594;80;21511;-83
2021/06/09 02:21:50;;;;;;;33.50;9.15;;;;;;;13.85;100.00;100355.46;1772383;80;21466;-83
2021/06/09 02:24:17;;;;;;;38.05;8.68;;;;;;;13.94;100.00;100352.93;1772672;80;21929;-83
2021/06/09 02:26:44;;;;;;;48.33;9.40;;;;;;;14.03;100.00;100352.03;1772626;81;21495;-83
2021/06/09 02:29:13;;;;;;;31.60;8.38;;;;;;;14.13;100.00;100357.87;1772670;80;21042;-83
2021/06/09 02:31:46;;;;;;;41.02;8.85;;;;;;;14.23;100.00;100359.09;1772527;80;21094;-83
2021/06/09 02:34:17;;;;;;;49.15;8.13;;;;;;;14.30;100.00;100360.91;1717584;82;21054;-83
2021/06/09 02:36:43;;;;;;;45.40;8.83;;;;;;;14.41;100.00;100368.38;1585031;90;21105;-83
2021/06/09 02:39:11;;;;;;;41.10;8.23;;;;;;;14.51;100.00;100363.36;1584921;90;21103;-83
2021/06/09 02:41:37;;;;;;;63.90;8.43;;;;;;;14.63;100.00;100361.61;1585079;90;21155;-83
2021/06/09 02:44:05;;;;;;;41.48;8.18;;;;;;;14.72;100.00;100366.07;1584960;90;20984;-83
2021/06/09 02:46:41;;;;;;;37.60;7.55;;;;;;;14.82;100.00;100361.59;1585110;90;21046;-80
2021/06/09 02:49:11;;;;;;;39.78;7.70;;;;;;;14.96;100.00;100361.92;1584880;90;21208;-83
2021/06/09 02:51:46;;;;;;;77.37;8.75;;;;;;;15.07;100.00;100361.78;1584964;90;21038;-83
2021/06/09 02:54:38;;;;;;;34.65;7.60;;;;;;;15.16;100.00;100355.93;1585015;90;21032;-88
2021/06/09 02:57:26;;;;;;;42.00;8.38;;;;;;;15.28;100.00;100358.98;1596059;89;21518;-91
2021/06/09 03:00:30;;;;;;;52.55;7.45;;;;;;;15.43;100.00;100361.43;1603704;88;21149;-91
2021/06/09 03:03:25;;;;;;;35.83;6.55;;;;;;;15.58;100.00;100360.36;1604846;88;21568;-84
2021/06/09 03:06:05;;;;;;;30.30;6.87;;;;;;;15.87;100.00;100353.89;1604415;89;21035;-85
2021/06/09 03:08:57;;;;;;;30.25;6.22;;;;;;;15.87;100.00;100353.89;1604120;89;21100;-84
2021/06/09 03:11:32;;;;;;;29.50;6.15;;;;;;;15.99;100.00;100346.05;1582901;89;21672;-83
2021/06/09 03:17:15;;;;;;;21.70;6.28;;;;;;;16.35;100.00;100355.66;1601386;88;21150;-85
2021/06/09 03:19:53;;;;;;;25.30;5.83;;;;;;;16.49;100.00;100348.81;1596234;88;21090;-85
2021/06/09 03:22:43;;;;;;;17.45;5.92;;;;;;;16.71;100.00;100354.08;1581590;90;21090;-86
2021/06/09 03:25:14;;;;;;;33.42;6.62;;;;;;;16.86;100.00;100354.31;1581611;90;21029;-85
2021/06/09 03:27:53;;;;;;;18.23;5.58;;;;;;;16.99;100.00;100352.08;1583170;90;21105;-85
2021/06/09 03:30:23;;;;;;;40.38;5.50;;;;;;;17.08;100.00;100352.95;1583257;89;21193;-86
2021/06/09 03:33:01;;;;;;;35.85;6.00;;;;;;;17.28;100.00;100361.18;1586150;89;21038;-85
2021/06/09 03:35:43;;;;;;;33.63;6.17;;;;;;;17.40;100.00;100357.89;1516834;94;21604;-85
2021/06/09 03:38:14;;;;;;;26.75;4.97;;;;;;;17.46;100.00;100360.73;1516891;92;21071;-84
2021/06/09 03:40:43;;;;;;;87.85;6.78;;;;;;;17.53;100.00;100365.73;1573844;90;21119;-84
2021/06/09 03:43:11;;;;;;;42.00;6.17;;;;;;;17.64;100.00;100363.78;1593123;90;21186;-84
2021/06/09 03:45:45;;;;;;;77.08;5.97;;;;;;;17.76;100.00;100356.39;1593321;90;21580;-84
2021/06/09 03:48:14;;;;;;;42.43;6.28;;;;;;;17.87;100.00;100358.33;1571088;90;21022;-85
2021/06/09 03:50:42;;;;;;;37.90;6.22;;;;;;;18.03;100.00;100360.05;1576173;91;21064;-84
2021/06/09 03:53:09;;;;;;;12.53;5.50;;;;;;;18.26;100.00;100356.12;1589677;88;21033;-85
2021/06/09 03:55:38;;;;;;;53.60;6.62;;;;;;;18.43;100.00;100351.83;1574905;90;22009;-85
2021/06/09 03:58:11;;;;;;;23.67;6.50;;;;;;;18.51;100.00;100351.84;1578860;90;21158;-85
2021/06/09 04:00:40;;;;;;;28.83;5.67;;;;;;;18.68;100.00;100361.16;1628093;86;21064;-85
2021/06/09 04:03:07;;;;;;;35.92;6.15;;;;;;;18.79;100.00;100358.39;1641713;86;21027;-84
2021/06/09 04:05:37;;;;;;;20.72;5.60;;;;;;;18.95;100.00;100359.53;1630108;88;21050;-85
2021/06/09 04:08:06;;;;;;;67.45;6.58;;;;;;;19.10;100.00;100361.54;1629969;88;21321;-85
2021/06/09 04:10:36;;;;;;;25.62;5.70;;;;;;;19.10;100.00;100358.23;1626341;88;21008;-85
2021/06/09 04:13:02;;;;;;;34.05;6.47;;;;;;;19.22;100.00;100365.21;1629576;88;20995;-85
2021/06/09 04:15:29;;;;;;;37.35;6.65;;;;;;;19.28;100.00;100368.58;1629874;88;21131;-85
2021/06/09 04:17:57;;;;;;;59.25;6.42;;;;;;;19.22;100.00;100371.24;1629802;88;21127;-87
2021/06/09 04:20:29;;;;;;;48.05;7.83;;;;;;;19.27;100.00;100372.45;1630059;88;22141;-85
2021/06/09 04:22:56;;;;;;;50.63;8.18;;;;;;;19.31;100.00;100373.40;1629652;88;21058;-85
2021/06/09 04:25:22;;;;;;;32.78;7.83;;;;;;;19.36;100.00;100371.07;1654402;86;21013;-85
2021/06/09 04:27:49;;;;;;;25.45;9.03;;;;;;;19.42;100.00;100365.67;1660595;86;21029;-85
2021/06/09 04:30:17;;;;;;;52.58;8.40;;;;;;;19.48;100.00;100369.27;1660768;86;21021;-85
2021/06/09 04:33:00;;;;;;;50.35;8.10;;;;;;;19.49;100.00;100368.12;1638086;86;21092;-85
2021/06/09 04:35:40;;;;;;;28.35;8.55;;;;;;;19.44;100.00;100371.06;1591893;89;21566;-84
2021/06/09 04:38:16;;;;;;;17.23;8.38;;;;;;;19.44;100.00;100368.33;1566344;91;21128;-86
2021/06/09 04:40:43;;;;;;;27.50;7.80;;;;;;;19.56;100.00;100376.39;1599789;88;21046;-84
2021/06/09 04:43:10;;;;;;;20.25;9.30;;;;;;;19.72;100.00;100374.78;1582709;89;21149;-85
2021/06/09 04:45:37;;;;;;;21.82;7.67;;;;;;;19.78;100.00;100369.94;1658753;84;21155;-85
2021/06/09 04:48:12;;;;;;;21.17;8.15;;;;;;;20.03;100.00;100371.78;1690155;84;21123;-85
2021/06/09 04:50:39;;;;;;;28.60;9.10;;;;;;;20.22;100.00;100363.72;1688087;84;21047;-85
2021/06/09 04:53:11;;;;;;;44.83;8.90;;;;;;;20.41;100.00;100364.89;1690221;84;21052;-85
2021/06/09 04:55:41;;;;;;;23.92;9.58;;;;;;;20.51;100.00;100368.38;1690202;84;21074;-85
2021/06/09 04:58:10;;;;;;;20.35;10.08;;;;;;;20.68;100.00;100366.09;1652602;86;21185;-85
2021/06/09 05:00:36;;;;;;;16.70;8.88;;;;;;;20.82;100.00;100368.83;1628716;88;21617;-85
2021/06/09 05:03:03;;;;;;;16.70;8.95;;;;;;;21.00;100.00;100370.85;1633848;87;21006;-85
2021/06/09 05:05:31;;;;;;;16.77;10.03;;;;;;;21.02;100.00;100374.61;1606503;89;21050;-84
2021/06/09 05:07:57;;;;;;;19.75;10.60;;;;;;;21.01;100.00;100379.87;1601338;89;21083;-85
2021/06/09 05:10:24;;;;;;;19.60;10.38;;;;;;;21.14;100.00;100378.77;1601729;89;21199;-85
2021/06/09 05:13:18;;;;;;;21.20;10.55;;;;;;;21.31;100.00;100377.24;1601614;88;20987;-85
2021/06/09 05:15:50;;;;;;;18.23;10.40;;;;;;;21.53;100.00;100376.64;1601662;89;21070;-86
2021/06/09 05:18:28;;;;;;;16.60;9.43;;;;;;;21.80;100.00;100378.55;1549648;92;21569;-85
2021/06/09 05:20:55;;;;;;;17.52;10.03;;;;;;;22.00;100.00;100377.62;1513305;93;21708;-85
2021/06/09 05:23:36;;;;;;;17.95;10.15;;;;;;;22.39;100.00;100371.27;1508195;95;21162;-86
2021/06/09 05:26:03;;;;;;;17.23;9.93;;;;;;;22.58;100.00;100378.89;1507979;95;21019;-85
2021/06/09 05:28:33;;;;;;;16.37;9.45;;;;;;;22.58;100.00;100374.20;1508185;95;21098;-85
2021/06/09 05:31:01;;;;;;;21.55;10.15;;;;;;;22.63;100.00;100379.46;1508088;95;21161;-85
2021/06/09 05:33:30;;;;;;;19.73;11.18;;;;;;;22.58;100.00;100381.06;1503086;94;21175;-85
2021/06/09 05:35:57;;;;;;;17.40;9.80;;;;;;;22.56;100.00;100372.94;1505508;94;21195;-83
2021/06/09 05:38:24;;;;;;;20.50;10.50;;;;;;;23.02;100.00;100376.30;1500350;93;21128;-86
2021/06/09 05:40:53;;;;;;;20.25;11.05;;;;;;;23.59;100.00;100376.48;1547388;90;21468;-85
2021/06/09 05:43:21;;;;;;;18.60;10.53;;;;;;;24.11;100.00;100386.45;1556752;90;21163;-85
2021/06/09 05:45:49;;;;;;;23.40;11.00;;;;;;;24.58;100.00;100377.92;1554390;91;21116;-88
2021/06/09 05:48:19;;;;;;;20.37;10.15;;;;;;;25.10;100.00;100369.77;1553892;92;21073;-85
2021/06/09 05:50:58;;;;;;;16.45;10.35;;;;;;;25.89;100.00;100374.81;1568452;90;21230;-84
2021/06/09 05:53:30;;;;;;;15.23;9.78;;;;;;;26.57;100.00;100374.48;1532207;92;21095;-84
2021/06/09 05:55:56;;;;;;;14.83;10.00;;;;;;;27.61;100.00;100375.70;1551319;90;21127;-86
2021/06/09 05:58:26;;;;;;;15.32;9.28;;;;;;;28.99;100.00;100373.70;1547298;91;21070;-86
2021/06/09 06:01:01;;;;;;;12.45;8.50;;;;;;;30.29;100.00;100381.06;1546210;92;21120;-87
2021/06/09 06:03:29;;;;;;;13.60;9.05;;;;;;;31.14;91.26;100379.81;1531417;93;21113;-87
2021/06/09 06:06:02;;;;;;;12.00;9.00;;;;;;;31.44;82.48;100376.48;1614212;88;21105;-87
2021/06/09 06:08:35;;;;;;;11.57;8.90;;;;;;;31.66;80.53;100375.13;1620387;88;21616;-86
2021/06/09 06:11:06;;;;;;;13.58;9.03;;;;;;;32.30;77.08;100380.00;1620085;87;21042;-86
2021/06/09 06:13:34;;;;;;;14.63;9.15;;;;;;;32.78;71.44;100377.08;1582691;89;21906;-88
2021/06/09 06:16:02;;;;;;;11.22;8.03;;;;;;;33.00;67.71;100381.02;1621163;87;21513;-88
2021/06/09 06:18:37;;;;;;;14.63;8.08;;;;;;;33.31;64.44;100383.80;1627772;85;21041;-88
2021/06/09 06:21:06;;;;;;;13.90;8.40;;;;;;;33.88;61.11;100379.52;1606268;88;21556;-88
2021/06/09 06:26:14;;;;;;;11.50;8.53;;;;;;;35.31;52.91;100372.41;1680348;85;21035;-87
2021/06/09 06:28:52;;;;;;;12.23;8.23;;;;;;;35.31;52.91;100372.41;1682128;85;21031;-89
2021/06/09 06:31:25;;;;;;;12.80;7.33;;;;;;;33.81;50.13;100359.30;1681874;85;21130;-88
2021/06/09 06:34:05;;;;;;;11.43;7.62;;;;;;;33.85;50.61;100371.98;1682183;85;21042;-88
2021/06/09 06:36:50;;;;;;;8.65;6.85;;;;;;;33.85;50.61;100371.98;1603084;89;21015;-88
2021/06/09 06:39:18;;;;;;;9.05;6.05;;;;;;;33.82;50.28;100372.05;1572352;91;21471;-89
2021/06/09 06:41:44;;;;;;;8.38;6.60;;;;;;;34.59;50.79;100376.69;1552206;92;21075;-89
2021/06/09 06:44:11;;;;;;;27.75;6.60;;;;;;;35.60;48.37;100373.34;1552482;92;21100;-89
2021/06/09 06:46:38;;;;;;;8.88;6.00;;;;;;;35.98;47.21;100372.80;1552601;92;21123;-89
2021/06/09 06:49:04;;;;;;;9.70;5.90;;;;;;;36.17;44.95;100369.71;1515503;93;21026;-88
2021/06/09 06:51:32;;;;;;;9.58;5.58;;;;;;;35.71;44.47;100375.27;1511987;94;21101;-88
2021/06/09 06:53:59;;;;;;;11.80;6.33;;;;;;;34.82;43.84;100373.03;1484319;96;21153;-88
2021/06/09 06:56:26;;;;;;;7.47;5.90;;;;;;;34.30;47.29;100375.05;1511571;94;21183;-88
2021/06/09 06:59:03;;;;;;;10.58;5.83;;;;;;;35.21;48.91;100370.82;1504539;92;21162;-89
2021/06/09 07:01:32;;;;;;;11.60;5.62;;;;;;;35.41;44.10;100371.36;1503388;94;21101;-88
2021/06/09 07:03:59;;;;;;;9.33;5.03;;;;;;;34.81;44.37;100373.64;1503742;94;21179;-89
2021/06/09 07:06:27;;;;;;;7.78;5.55;;;;;;;34.40;45.08;100376.84;1503601;95;21006;-88
2021/06/09 07:08:53;;;;;;;13.95;5.47;;;;;;;34.52;45.15;100373.41;1503456;95;21100;-88
2021/06/09 07:11:20;;;;;;;7.35;5.30;;;;;;;35.09;45.21;100370.06;1521973;93;21815;-88
2021/06/09 07:13:49;;;;;;;8.70;5.35;;;;;;;35.82;43.23;100367.97;1524729;92;21059;-88
2021/06/09 07:16:16;;;;;;;6.47;3.85;;;;;;;36.78;41.94;100361.02;1524731;94;21958;-87
2021/06/09 07:21:21;;;;;;;7.62;3.98;;;;;;;36.90;41.07;100365.87;1489669;96;21095;-87
2021/06/09 07:23:47;;;;;;;7.90;3.90;;;;;;;36.41;39.89;100361.83;1489883;96;21446;-87
2021/06/09 07:26:15;;;;;;;5.10;3.75;;;;;;;35.49;41.55;100367.16;1472064;96;21127;-88
2021/06/09 07:28:55;;;;;;;6.08;4.45;;;;;;;34.56;42.16;100365.77;1490424;96;21089;-88
2021/06/09 07:31:34;;;;;;;5.95;3.85;;;;;;;33.55;43.36;100357.51;1472165;96;21140;-87
2021/06/09 07:34:00;;;;;;;9.73;4.28;;;;;;;32.62;46.68;100364.33;1539008;91;21066;-88
2021/06/09 07:36:34;;;;;;;5.87;3.60;;;;;;;32.38;48.01;100369.54;1550097;92;20999;-88
2021/06/09 07:39:11;;;;;;;4.83;4.10;;;;;;;32.05;48.46;100369.86;1550199;92;21618;-87
2021/06/09 07:41:41;;;;;;;7.50;3.83;;;;;;;31.63;49.12;100366.81;1560135;89;21172;-88
2021/06/09 07:44:10;;;;;;;3.98;3.30;;;;;;;31.96;50.11;100363.18;1602760;89;21656;-88
2021/06/09 07:46:38;;;;;;;5.40;3.27;;;;;;;32.19;49.55;100361.97;1606018;89;21093;-87
2021/06/09 07:49:08;;;;;;;4.87;3.37;;;;;;;32.47;47.52;100362.28;1605927;89;20995;-88
2021/06/09 07:51:35;;;;;;;6.97;3.05;;;;;;;32.28;47.39;100357.30;1584941;89;21030;-87
2021/06/09 07:54:02;;;;;;;5.20;3.25;;;;;;;31.86;46.32;100366.23;1605978;89;21545;-88
2021/06/09 07:56:33;;;;;;;7.60;3.37;;;;;;;31.49;47.65;100363.52;1606039;89;21102;-87
2021/06/09 07:59:03;;;;;;;4.58;3.02;;;;;;;31.03;47.30;100360.38;1570817;90;21670;-88
2021/06/09 08:01:30;;;;;;;5.55;3.35;;;;;;;30.07;49.79;100360.82;1544080;92;21108;-88
2021/06/09 08:03:57;;;;;;;4.30;3.37;;;;;;;29.72;51.78;100365.00;1567503;91;21023;-88
2021/06/09 08:06:24;;;;;;;6.12;3.08;;;;;;;29.91;51.47;100369.36;1567460;91;21110;-87
2021/06/09 08:08:51;;;;;;;4.62;2.90;;;;;;;30.36;51.84;100368.36;1567131;91;21591;-87
2021/06/09 08:11:18;;;;;;;5.85;2.60;;;;;;;30.55;51.45;100366.51;1567311;91;21106;-87
2021/06/09 08:13:44;;;;;;;4.92;2.50;;;;;;;30.65;50.07;100370.44;1567384;91;21002;-87
2021/06/09 08:16:17;;;;;;;3.37;2.52;;;;;;;30.19;50.02;100367.95;1567381;91;21085;-87
2021/06/09 08:18:45;;;;;;;4.55;2.67;;;;;;;29.71;51.41;100366.99;1565766;91;21729;-87
2021/06/09 08:21:21;;;;;;;5.70;2.80;;;;;;;29.52;52.20;100365.34;1569100;91;21075;-88
2021/06/09 08:23:50;;;;;;;5.40;3.30;;;;;;;29.07;52.48;100369.02;1569004;91;21131;-88
2021/06/09 08:26:20;;;;;;;4.87;3.33;;;;;;;28.92;53.21;100360.41;1569294;91;21130;-87
2021/06/09 08:28:47;;;;;;;5.28;2.70;;;;;;;29.71;54.44;100356.45;1548397;91;21720;-88
2021/06/09 08:31:18;;;;;;;4.10;2.80;;;;;;;30.71;50.43;100359.91;1569411;91;21085;-87
2021/06/09 08:33:45;;;;;;;3.40;2.85;;;;;;;31.60;48.19;100350.91;1569365;91;21044;-87
2021/06/09 08:36:14;;;;;;;3.10;2.55;;;;;;;32.65;48.52;100355.70;1569061;91;21044;-87
2021/06/09 08:38:42;;;;;;;5.87;2.37;;;;;;;33.86;44.80;100349.03;1584306;90;21678;-88
2021/06/09 08:41:11;;;;;;;3.10;2.40;;;;;;;34.89;42.64;100347.69;1593297;90;21099;-88
2021/06/09 08:43:40;;;;;;;3.83;2.58;;;;;;;35.38;41.00;100351.20;1593232;90;21137;-88
2021/06/09 08:46:09;;;;;;;3.05;2.35;;;;;;;35.94;39.14;100348.23;1593091;90;21586;-86
2021/06/09 08:48:44;;;;;;;5.55;2.47;;;;;;;35.70;38.82;100341.42;1593005;90;21033;-87
2021/06/09 08:51:13;;;;;;;3.05;2.45;;;;;;;35.11;38.31;100345.83;1593244;90;21625;-85
2021/06/09 08:53:46;;;;;;;6.67;3.45;;;;;;;34.37;40.98;100338.52;1593261;90;21066;-87
2021/06/09 08:56:13;;;;;;;3.37;2.37;;;;;;;34.12;41.30;100334.79;1662254;84;21160;-86
2021/06/09 08:58:41;;;;;;;3.72;2.75;;;;;;;34.42;41.47;100328.85;1684714;84;21010;-86
2021/06/09 09:01:08;;;;;;;2.40;2.20;;;;;;;34.93;37.89;100332.20;1680761;85;21299;-87
2021/06/09 09:03:36;;;;;;;2.47;2.27;;;;;;;34.82;38.04;100330.41;1681036;85;21164;-87
2021/06/09 09:06:04;;;;;;;2.80;2.08;;;;;;;35.31;38.63;100325.55;1681206;85;21018;-86
2021/06/09 09:08:33;;;;;;;3.20;2.52;;;;;;;36.38;39.44;100319.99;1680919;85;21194;-87
2021/06/09 09:11:00;;;;;;;6.00;2.20;;;;;;;37.22;36.11;100324.16;1680867;85;21055;-86
2021/06/09 09:13:26;;;;;;;2.77;2.30;;;;;;;37.80;35.61;100320.88;1680999;85;20984;-87
2021/06/09 09:15:54;;;;;;;2.00;1.80;;;;;;;38.21;32.13;100316.25;1680637;85;21494;-85
2021/06/09 09:18:40;;;;;;;2.70;2.40;;;;;;;37.81;34.60;100319.03;1680720;85;21042;-86
2021/06/09 09:21:06;;;;;;;4.78;2.67;;;;;;;37.76;33.97;100319.59;1680436;85;21141;-86
2021/06/09 09:23:34;;;;;;;7.00;3.00;;;;;;;37.55;33.38;100318.92;1681218;85;21011;-86
2021/06/09 09:26:23;;;;;;;4.30;2.80;;;;;;;36.92;34.43;100321.27;1680588;85;21066;-86
2021/06/09 09:28:49;;;;;;;3.65;2.50;;;;;;;36.02;33.91;100317.98;1657662;86;21040;-87
2021/06/09 09:31:19;;;;;;;4.20;2.70;;;;;;;35.10;35.13;100317.03;1657655;86;21504;-87
2021/06/09 09:33:46;;;;;;;6.50;3.00;;;;;;;34.30;35.87;100306.50;1657570;86;22098;-86
2021/06/09 09:36:28;;;;;;;6.25;2.65;;;;;;;33.85;37.05;100309.08;1657500;86;21019;-86
2021/06/09 09:38:56;;;;;;;;;;;;;;;33.27;38.06;100316.00;1659810;86;21029;-86
2021/06/09 09:41:29;;;;;;;3.98;2.55;;;;;;;32.64;38.34;100319.25;1608378;89;20492;-86
2021/06/09 09:43:59;;;;;;;3.80;2.58;;;;;;;32.53;40.01;100316.00;1603258;89;21085;-86
2021/06/09 09:46:39;;;;;;;3.65;2.47;;;;;;;32.65;40.68;100312.45;1602865;89;21196;-84
2021/06/09 09:49:15;;;;;;;5.25;2.25;;;;;;;32.43;40.87;100314.69;1601053;89;21061;-86
2021/06/09 09:51:55;;;;;;;2.42;2.00;;;;;;;32.28;39.41;100307.09;1602890;89;21084;-86
2021/06/09 09:54:31;;;;;;;2.55;2.10;;;;;;;32.30;39.78;100311.66;1604136;89;21532;-86
2021/06/09 09:57:03;;;;;;;3.02;1.70;;;;;;;32.67;40.12;100315.01;1602828;89;21208;-87
2021/06/09 09:59:31;;;;;;;;;;;;;;;32.57;37.64;100306.19;1601871;88;21365;-86
2021/06/09 10:02:02;;;;;;;7.78;2.37;;;;;;;31.89;37.10;100304.09;1595580;90;20181;-87
2021/06/09 10:04:33;;;;;;;4.60;1.70;;;;;;;31.16;39.56;100298.08;1595564;89;21055;-86
2021/06/09 10:06:59;;;;;;;5.93;2.80;;;;;;;31.45;42.35;100294.52;1596067;89;21060;-84
2021/06/09 10:09:38;;;;;;;3.37;2.10;;;;;;;31.74;42.34;100302.61;1596155;90;20916;-85
2021/06/09 10:12:15;;;;;;;4.00;2.35;;;;;;;30.93;43.55;100288.27;1595711;90;21000;-86
2021/06/09 10:14:51;;;;;;;3.95;2.00;;;;;;;29.77;46.20;100294.56;1606776;89;21565;-84
2021/06/09 10:17:29;;;;;;;4.17;2.33;;;;;;;29.13;47.88;100288.34;1606454;89;21046;-86
2021/06/09 10:20:03;;;;;;;3.02;2.10;;;;;;;28.23;51.02;100294.09;1606806;89;21022;-85
2021/06/09 10:22:37;;;;;;;4.50;2.37;;;;;;;28.09;56.49;100292.64;1606715;88;21077;-85
2021/06/09 10:25:13;;;;;;;3.17;2.12;;;;;;;28.33;55.80;100293.97;1606623;89;21995;-85
2021/06/09 10:27:51;;;;;;;1.82;1.62;;;;;;;28.27;53.00;100286.61;1606777;88;21026;-86
2021/06/09 10:30:24;;;;;;;7.42;2.45;;;;;;;28.13;54.70;100292.06;1531687;93;21105;-84
2021/06/09 10:32:56;;;;;;;4.15;1.77;;;;;;;27.63;56.65;100291.09;1531064;92;21039;-84
2021/06/09 10:35:26;;;;;;;2.55;2.02;;;;;;;27.40;56.23;100290.49;1537798;93;21103;-84
2021/06/09 10:37:53;;;;;;;2.85;2.25;;;;;;;27.22;54.79;100290.33;1556092;91;21725;-85
2021/06/09 10:40:25;;;;;;;5.45;2.12;;;;;;;26.94;56.29;100283.88;1551324;91;21068;-83
2021/06/09 10:42:50;;;;;;;2.92;2.15;;;;;;;26.65;59.25;100286.34;1541654;91;21040;-83
2021/06/09 10:45:17;;;;;;;6.58;1.98;;;;;;;26.67;59.11;100284.56;1541847;93;21058;-83
2021/06/09 10:47:46;;;;;;;2.87;1.70;;;;;;;26.88;59.59;100284.80;1542089;93;21080;-83
2021/06/09 10:50:14;;;;;;;2.75;1.67;;;;;;;27.39;57.99;100292.47;1541948;93;21850;-84
2021/06/09 10:52:41;;;;;;;3.30;1.70;;;;;;;27.66;56.99;100291.52;1541829;93;21581;-85
2021/06/09 10:55:10;;;;;;;3.47;1.90;;;;;;;28.16;56.70;100284.95;1541974;93;21197;-84
2021/06/09 10:57:37;;;;;;;4.85;1.35;;;;;;;28.55;55.76;100292.70;1549696;92;21011;-83
2021/06/09 11:00:08;;;;;;;3.47;1.90;;;;;;;28.31;52.68;100294.34;1523080;92;21576;-86
2021/06/09 11:02:35;;;;;;;6.62;2.22;;;;;;;27.18;55.18;100296.42;1438657;99;21199;-84
2021/06/09 11:05:07;;;;;;;7.22;1.90;;;;;;;26.35;59.85;100301.50;1426108;99;21148;-81
2021/06/09 11:07:39;;;;;;;;;;;;;;;25.64;65.08;100300.41;1436375;98;21123;-84
2021/06/09 11:10:13;;;;;;;7.67;1.85;;;;;;;25.10;72.93;100298.86;1437873;99;20562;-85
2021/06/09 11:12:49;;;;;;;5.30;1.80;;;;;;;24.58;84.49;100307.66;1456564;97;21124;-88
2021/06/09 11:15:18;;;;;;;2.75;1.70;;;;;;;23.92;99.53;100303.81;1446321;99;21948;-90
2021/06/09 11:17:54;;;;;;;4.15;1.52;;;;;;;23.37;100.00;100298.68;1446274;99;21131;-89
2021/06/09 11:20:38;;;;;;;3.08;1.67;;;;;;;23.16;100.00;100298.92;1507037;92;21656;-84
2021/06/09 11:23:25;;;;;;;7.83;2.67;;;;;;;23.21;100.00;100301.42;1569340;90;21551;-90
2021/06/09 11:25:52;;;;;;;6.55;2.35;;;;;;;23.60;100.00;100301.63;1581942;90;21052;-89
2021/06/09 11:28:37;;;;;;;5.83;2.00;;;;;;;23.83;100.00;100291.61;1609098;88;21398;-89
2021/06/09 11:31:14;;;;;;;8.38;2.47;;;;;;;24.00;100.00;100291.79;1615257;88;21630;-90
2021/06/09 11:34:03;;;;;;;2.70;1.75;;;;;;;24.00;100.00;100292.61;1615292;88;21850;-89
2021/06/09 11:36:43;;;;;;;4.67;1.70;;;;;;;24.19;100.00;100284.17;1615226;88;21088;-91
2021/06/09 11:39:21;;;;;;;3.42;2.10;;;;;;;24.51;100.00;100284.10;1609766;88;21227;-88
2021/06/09 11:41:48;;;;;;;2.90;1.92;;;;;;;24.60;100.00;100280.55;1540018;93;21196;-90